Time;durP1;ratioP1;P1;durP2;ratioP2;P2;SDS_P1;SDS_P2;PMS_P1;PMS_P2;Temp;Humidity;BMP_temperature;BMP_pressure;BME280_temperature;BME280_humidity;BME280_pressure;Samples;Min_cycle;Max_cycle;Signal;HPM_P1;HPM_P2
2024/01/28 00:02:14;;;;;;;5.78;2.55;;;;;;;;;;5030792;28;20072;-79
2024/01/28 00:04:39;;;;;;;8.77;4.13;;;;;;;;;;5047572;28;20071;-79
2024/01/28 00:07:04;;;;;;;11.43;3.45;;;;;;;;;;5039337;28;20048;-79
2024/01/28 00:09:30;;;;;;;9.52;3.17;;;;;;;;;;5026229;28;20124;-79
2024/01/28 00:11:55;;;;;;;7.53;2.20;;;;;;;;;;5006059;28;20090;-79
2024/01/28 00:14:21;;;;;;;8.05;3.33;;;;;;;;;;5019950;28;20071;-78
2024/01/28 00:16:47;;;;;;;8.40;3.80;;;;;;;;;;5041016;28;20044;-79
2024/01/28 00:19:13;;;;;;;14.20;7.00;;;;;;;;;;5033914;28;20044;-79
2024/01/28 00:21:38;;;;;;;12.63;4.53;;;;;;;;;;5022254;28;20045;-79
2024/01/28 00:24:04;;;;;;;8.73;3.33;;;;;;;;;;5029033;28;20030;-79
2024/01/28 00:26:30;;;;;;;8.70;4.03;;;;;;;;;;5028429;28;20393;-79
2024/01/28 00:28:55;;;;;;;10.25;4.88;;;;;;;;;;5033800;28;20029;-79
2024/01/28 00:31:20;;;;;;;20.10;5.53;;;;;;;;;;5030911;28;20136;-79
2024/01/28 00:33:46;;;;;;;9.60;5.25;;;;;;;;;;5032165;28;20086;-79
2024/01/28 00:36:15;;;;;;;11.25;4.40;;;;;;;;;;5031249;28;20032;-79
2024/01/28 00:38:40;;;;;;;9.27;4.47;;;;;;;;;;5052344;28;20608;-79
2024/01/28 00:41:07;;;;;;;11.00;4.50;;;;;;;;;;5026519;28;20053;-78
2024/01/28 00:43:32;;;;;;;9.73;4.28;;;;;;;;;;5040304;28;20115;-79
2024/01/28 00:45:57;;;;;;;13.85;4.50;;;;;;;;;;5036939;28;20468;-80
2024/01/28 00:48:23;;;;;;;12.15;4.60;;;;;;;;;;5026622;28;20041;-79
2024/01/28 00:50:48;;;;;;;11.00;5.47;;;;;;;;;;5035048;28;20045;-78
2024/01/28 00:53:13;;;;;;;14.90;5.70;;;;;;;;;;5037003;28;20041;-78
2024/01/28 00:55:39;;;;;;;11.27;5.15;;;;;;;;;;5010925;28;20572;-79
2024/01/28 00:58:04;;;;;;;12.32;5.10;;;;;;;;;;5033928;28;20560;-79
2024/01/28 01:00:30;;;;;;;11.88;5.38;;;;;;;;;;5043434;28;20041;-79
2024/01/28 01:02:56;;;;;;;11.38;5.35;;;;;;;;;;5046823;28;20101;-80
2024/01/28 01:05:21;;;;;;;15.55;4.80;;;;;;;;;;5038110;28;20132;-79
2024/01/28 01:07:47;;;;;;;11.27;3.60;;;;;;;;;;5037686;28;20033;-79
2024/01/28 01:10:13;;;;;;;9.75;4.65;;;;;;;;;;5028955;28;20033;-79
2024/01/28 01:12:39;;;;;;;6.63;3.00;;;;;;;;;;5038540;28;20049;-79
2024/01/28 01:15:04;;;;;;;5.22;2.58;;;;;;;;;;5028135;28;20041;-78
2024/01/28 01:17:30;;;;;;;9.80;3.50;;;;;;;;;;5037582;28;20147;-79
2024/01/28 01:19:55;;;;;;;10.60;3.20;;;;;;;;;;5024053;28;20033;-79
2024/01/28 01:22:20;;;;;;;8.15;2.72;;;;;;;;;;5036962;28;20377;-79
2024/01/28 01:24:46;;;;;;;7.68;3.55;;;;;;;;;;5020783;28;20502;-78
2024/01/28 01:27:11;;;;;;;13.20;4.88;;;;;;;;;;5023807;28;20041;-78
2024/01/28 01:29:37;;;;;;;5.75;3.25;;;;;;;;;;5038092;28;20053;-78
2024/01/28 01:32:02;;;;;;;5.68;2.53;;;;;;;;;;5046048;28;20045;-78
2024/01/28 01:34:28;;;;;;;11.77;3.85;;;;;;;;;;5047257;28;20438;-79
2024/01/28 01:36:53;;;;;;;9.63;3.63;;;;;;;;;;5036056;28;20643;-78
2024/01/28 01:39:19;;;;;;;11.27;3.72;;;;;;;;;;5017069;28;20048;-78
2024/01/28 01:41:44;;;;;;;11.93;4.85;;;;;;;;;;5029729;28;20041;-78
2024/01/28 01:44:10;;;;;;;3.95;1.77;;;;;;;;;;5034099;28;20120;-79
2024/01/28 01:46:37;;;;;;;11.18;4.30;;;;;;;;;;5014647;28;20547;-78
2024/01/28 01:49:02;;;;;;;12.63;4.78;;;;;;;;;;5028124;28;20036;-78
2024/01/28 01:51:29;;;;;;;9.20;5.00;;;;;;;;;;5029077;28;20394;-78
2024/01/28 01:53:55;;;;;;;7.28;4.07;;;;;;;;;;5017623;28;20056;-79
2024/01/28 01:56:21;;;;;;;8.48;4.18;;;;;;;;;;5044916;28;20045;-78
2024/01/28 01:58:46;;;;;;;10.65;4.30;;;;;;;;;;5026854;28;20051;-80
2024/01/28 02:01:16;;;;;;;15.55;4.60;;;;;;;;;;5028254;28;20041;-79
2024/01/28 02:03:42;;;;;;;8.43;3.65;;;;;;;;;;5030490;28;20048;-80
2024/01/28 02:06:07;;;;;;;9.45;3.38;;;;;;;;;;5041736;28;20619;-79
2024/01/28 02:08:32;;;;;;;13.27;3.60;;;;;;;;;;5037974;28;20533;-79
2024/01/28 02:11:01;;;;;;;10.60;2.85;;;;;;;;;;5016409;28;20037;-78
2024/01/28 02:13:27;;;;;;;10.30;3.58;;;;;;;;;;5023115;28;20041;-78
2024/01/28 02:15:52;;;;;;;5.68;2.97;;;;;;;;;;5026602;28;20115;-78
2024/01/28 02:18:17;;;;;;;5.95;3.20;;;;;;;;;;5047924;28;20131;-79
2024/01/28 02:20:43;;;;;;;7.60;3.40;;;;;;;;;;5004529;28;21006;-79
2024/01/28 02:23:08;;;;;;;9.82;2.85;;;;;;;;;;5027917;28;20057;-79
2024/01/28 02:25:34;;;;;;;6.70;2.40;;;;;;;;;;5016499;28;20037;-79
2024/01/28 02:27:59;;;;;;;7.32;3.50;;;;;;;;;;5025311;28;20037;-78
2024/01/28 02:30:25;;;;;;;11.15;3.80;;;;;;;;;;5035408;28;20151;-79
2024/01/28 02:32:51;;;;;;;7.55;4.40;;;;;;;;;;5027175;28;20037;-79
2024/01/28 02:35:18;;;;;;;9.70;3.38;;;;;;;;;;5031586;28;20133;-78
2024/01/28 02:37:44;;;;;;;4.65;2.40;;;;;;;;;;5052020;28;20036;-79
2024/01/28 02:40:10;;;;;;;11.07;2.90;;;;;;;;;;5033641;28;20056;-78
2024/01/28 02:42:35;;;;;;;3.60;2.50;;;;;;;;;;5029197;28;20589;-79
2024/01/28 02:45:01;;;;;;;9.85;3.30;;;;;;;;;;5034386;28;20147;-79
2024/01/28 02:47:26;;;;;;;9.88;3.95;;;;;;;;;;5037329;28;20125;-79
2024/01/28 02:49:52;;;;;;;7.07;3.50;;;;;;;;;;5012905;28;20132;-78
2024/01/28 02:52:17;;;;;;;8.57;4.07;;;;;;;;;;5025692;28;20048;-78
2024/01/28 02:54:43;;;;;;;8.07;3.03;;;;;;;;;;5028276;28;20093;-78
2024/01/28 02:57:08;;;;;;;7.85;3.55;;;;;;;;;;5040110;28;20586;-78
2024/01/28 02:59:33;;;;;;;7.72;4.55;;;;;;;;;;5056699;28;20032;-78
2024/01/28 03:01:59;;;;;;;5.20;2.03;;;;;;;;;;5055093;28;20071;-79
2024/01/28 03:04:24;;;;;;;10.85;3.45;;;;;;;;;;5016249;28;20037;-79
2024/01/28 03:06:49;;;;;;;4.15;1.85;;;;;;;;;;5040511;28;20036;-79
2024/01/28 03:09:17;;;;;;;9.63;4.50;;;;;;;;;;5024659;28;20033;-79
2024/01/28 03:11:42;;;;;;;8.40;4.82;;;;;;;;;;5017678;28;20698;-80
2024/01/28 03:14:07;;;;;;;9.27;4.35;;;;;;;;;;5049075;28;20075;-79
2024/01/28 03:16:33;;;;;;;8.98;4.10;;;;;;;;;;5033036;28;20489;-79
2024/01/28 03:18:58;;;;;;;1.77;1.45;;;;;;;;;;5013302;28;20132;-79
2024/01/28 03:21:24;;;;;;;3.45;1.70;;;;;;;;;;5033054;28;20044;-79
2024/01/28 03:23:49;;;;;;;2.47;1.60;;;;;;;;;;5054232;28;20060;-78
2024/01/28 03:26:14;;;;;;;11.48;5.07;;;;;;;;;;5037506;28;20029;-79
2024/01/28 03:28:41;;;;;;;11.88;4.43;;;;;;;;;;5037072;28;20041;-79
2024/01/28 03:31:06;;;;;;;14.68;4.18;;;;;;;;;;5032076;28;20079;-78
2024/01/28 03:33:33;;;;;;;15.20;5.47;;;;;;;;;;5044570;28;20032;-79
2024/01/28 03:35:58;;;;;;;6.20;3.05;;;;;;;;;;5034856;28;20036;-79
2024/01/28 03:38:23;;;;;;;20.83;8.00;;;;;;;;;;5038944;28;20087;-78
2024/01/28 03:40:49;;;;;;;20.70;8.90;;;;;;;;;;5030007;28;20102;-78
2024/01/28 03:43:14;;;;;;;11.70;5.40;;;;;;;;;;5031596;28;20037;-78
2024/01/28 03:45:40;;;;;;;4.57;2.05;;;;;;;;;;5034039;28;20041;-78
2024/01/28 03:48:05;;;;;;;8.75;3.50;;;;;;;;;;5027164;28;20041;-78
2024/01/28 03:50:31;;;;;;;11.68;4.63;;;;;;;;;;5012727;28;20033;-78
2024/01/28 03:52:56;;;;;;;15.32;5.25;;;;;;;;;;5037601;28;20047;-78
2024/01/28 03:55:22;;;;;;;14.98;3.83;;;;;;;;;;5042294;28;20083;-77
2024/01/28 03:57:47;;;;;;;3.67;1.65;;;;;;;;;;5033431;28;20049;-78
2024/01/28 04:00:13;;;;;;;10.07;4.60;;;;;;;;;;5025460;28;20045;-78
2024/01/28 04:02:39;;;;;;;2.83;1.20;;;;;;;;;;5012962;28;20086;-79
2024/01/28 04:05:05;;;;;;;14.95;5.57;;;;;;;;;;5021201;28;20040;-79
2024/01/28 04:07:31;;;;;;;6.35;2.85;;;;;;;;;;5035905;28;20044;-79
2024/01/28 04:09:56;;;;;;;6.80;4.35;;;;;;;;;;5019601;28;20037;-78
2024/01/28 04:12:22;;;;;;;17.23;5.13;;;;;;;;;;5017340;28;20075;-78
2024/01/28 04:14:48;;;;;;;13.30;6.10;;;;;;;;;;5019967;28;20128;-78
2024/01/28 04:17:13;;;;;;;15.68;6.20;;;;;;;;;;5032523;28;20043;-78
2024/01/28 04:19:38;;;;;;;14.73;5.68;;;;;;;;;;5024637;28;20141;-78
2024/01/28 04:22:04;;;;;;;5.63;1.50;;;;;;;;;;5013245;28;20026;-78
2024/01/28 04:24:30;;;;;;;8.55;3.92;;;;;;;;;;5026750;28;20037;-78
2024/01/28 04:26:55;;;;;;;9.88;3.60;;;;;;;;;;5037488;28;20028;-78
2024/01/28 04:29:21;;;;;;;10.60;4.32;;;;;;;;;;5047715;28;20036;-78
2024/01/28 04:31:46;;;;;;;8.80;3.97;;;;;;;;;;5035101;28;20053;-78
2024/01/28 04:34:11;;;;;;;8.27;3.40;;;;;;;;;;5034696;28;20568;-78
2024/01/28 04:36:37;;;;;;;6.57;3.20;;;;;;;;;;5027321;28;20057;-78
2024/01/28 04:39:02;;;;;;;10.32;3.42;;;;;;;;;;5015091;28;20033;-78
2024/01/28 04:41:28;;;;;;;9.98;2.33;;;;;;;;;;5016794;28;20612;-79
2024/01/28 04:43:54;;;;;;;15.05;4.45;;;;;;;;;;5019427;28;20045;-78
2024/01/28 04:46:19;;;;;;;17.05;4.05;;;;;;;;;;5018041;28;20044;-78
2024/01/28 04:48:45;;;;;;;7.20;2.28;;;;;;;;;;5033949;28;20041;-79
2024/01/28 04:51:11;;;;;;;5.95;3.05;;;;;;;;;;5038932;28;20052;-78
2024/01/28 04:53:36;;;;;;;8.77;3.75;;;;;;;;;;5038261;28;20048;-79
2024/01/28 04:56:02;;;;;;;9.65;3.40;;;;;;;;;;5038472;28;20153;-80
2024/01/28 04:58:27;;;;;;;10.80;3.38;;;;;;;;;;5030349;28;20048;-79
2024/01/28 05:00:54;;;;;;;7.75;3.00;;;;;;;;;;5029557;28;20071;-80
2024/01/28 05:03:19;;;;;;;5.90;2.05;;;;;;;;;;5037865;28;20067;-79
2024/01/28 05:05:45;;;;;;;8.30;3.08;;;;;;;;;;5038852;28;20033;-79
2024/01/28 05:08:10;;;;;;;4.18;2.28;;;;;;;;;;5041685;28;20037;-79
2024/01/28 05:10:36;;;;;;;8.07;3.15;;;;;;;;;;5036758;28;20043;-79
2024/01/28 05:13:01;;;;;;;4.18;1.85;;;;;;;;;;5036085;28;20030;-79
2024/01/28 05:15:27;;;;;;;6.18;2.35;;;;;;;;;;5025484;28;20063;-78
2024/01/28 05:17:52;;;;;;;7.18;2.28;;;;;;;;;;5017470;28;20033;-79
2024/01/28 05:20:18;;;;;;;5.65;2.55;;;;;;;;;;5019123;28;20087;-79
2024/01/28 05:22:43;;;;;;;7.70;3.33;;;;;;;;;;5031467;28;20040;-79
2024/01/28 05:25:09;;;;;;;8.82;2.80;;;;;;;;;;5027177;28;20076;-79
2024/01/28 05:27:36;;;;;;;7.78;2.05;;;;;;;;;;5017016;28;20663;-80
2024/01/28 05:30:03;;;;;;;8.77;2.55;;;;;;;;;;5024224;28;20765;-79
2024/01/28 05:32:29;;;;;;;8.45;2.80;;;;;;;;;;5030253;28;20106;-78
2024/01/28 05:35:01;;;;;;;3.70;1.30;;;;;;;;;;5026164;28;20120;-79
2024/01/28 05:37:26;;;;;;;3.65;1.73;;;;;;;;;;5015194;28;20498;-78
2024/01/28 05:39:52;;;;;;;7.63;2.58;;;;;;;;;;5022065;28;20056;-80
2024/01/28 05:42:17;;;;;;;8.50;3.00;;;;;;;;;;5006703;28;20672;-78
2024/01/28 05:44:42;;;;;;;7.82;3.20;;;;;;;;;;5023711;28;20506;-79
2024/01/28 05:47:08;;;;;;;5.13;2.42;;;;;;;;;;5019580;28;20607;-79
2024/01/28 05:49:33;;;;;;;5.43;2.35;;;;;;;;;;5028408;28;20033;-79
2024/01/28 05:51:59;;;;;;;5.80;2.80;;;;;;;;;;5016268;28;20123;-79
2024/01/28 05:54:25;;;;;;;6.00;2.45;;;;;;;;;;5015534;28;20053;-79
2024/01/28 05:56:50;;;;;;;5.18;2.83;;;;;;;;;;5021022;28;20123;-79
2024/01/28 05:59:17;;;;;;;4.75;2.40;;;;;;;;;;5027184;28;20191;-79
2024/01/28 06:01:43;;;;;;;9.35;3.58;;;;;;;;;;5031163;28;20049;-79
2024/01/28 06:04:11;;;;;;;8.10;3.10;;;;;;;;;;5032305;28;20109;-79
2024/01/28 06:06:37;;;;;;;8.48;3.25;;;;;;;;;;5020698;28;20033;-79
2024/01/28 06:09:02;;;;;;;1.60;1.50;;;;;;;;;;5019750;28;20380;-78
2024/01/28 06:11:30;;;;;;;2.13;1.67;;;;;;;;;;5022131;28;20106;-78
2024/01/28 06:13:55;;;;;;;4.05;2.65;;;;;;;;;;5020589;28;20037;-78
2024/01/28 06:16:20;;;;;;;7.97;2.75;;;;;;;;;;5018458;28;20064;-80
2024/01/28 06:18:46;;;;;;;10.18;3.10;;;;;;;;;;5033815;28;20044;-79
2024/01/28 06:21:11;;;;;;;9.32;3.85;;;;;;;;;;5013887;28;20040;-78
2024/01/28 06:23:37;;;;;;;8.18;4.03;;;;;;;;;;5035396;28;20059;-79
2024/01/28 06:26:03;;;;;;;14.80;4.80;;;;;;;;;;5025100;28;20025;-79
2024/01/28 06:28:28;;;;;;;11.00;4.50;;;;;;;;;;5033834;28;20081;-79
2024/01/28 06:30:53;;;;;;;7.93;4.32;;;;;;;;;;5030065;28;20558;-78
2024/01/28 06:33:19;;;;;;;6.60;4.10;;;;;;;;;;5013563;28;20049;-80
2024/01/28 06:35:44;;;;;;;10.77;5.28;;;;;;;;;;5029930;28;20044;-78
2024/01/28 06:38:10;;;;;;;14.95;6.38;;;;;;;;;;5016465;28;20041;-78
2024/01/28 06:40:35;;;;;;;14.77;5.28;;;;;;;;;;5007414;28;20040;-78
2024/01/28 06:43:00;;;;;;;17.38;7.47;;;;;;;;;;5027776;28;20033;-77
2024/01/28 06:45:26;;;;;;;10.63;5.60;;;;;;;;;;5023602;28;20047;-78
2024/01/28 06:47:52;;;;;;;17.38;8.88;;;;;;;;;;5021192;28;20049;-78
2024/01/28 06:50:19;;;;;;;18.13;8.55;;;;;;;;;;5022805;28;20115;-79
2024/01/28 06:52:44;;;;;;;19.00;8.85;;;;;;;;;;5034084;28;20029;-79
2024/01/28 06:55:10;;;;;;;16.67;8.73;;;;;;;;;;5021686;28;20040;-80
2024/01/28 06:57:36;;;;;;;14.80;7.50;;;;;;;;;;5029791;28;20071;-80
2024/01/28 07:00:04;;;;;;;14.02;7.65;;;;;;;;;;5022025;28;20152;-79
2024/01/28 07:02:30;;;;;;;11.65;5.85;;;;;;;;;;5024651;28;20041;-79
2024/01/28 07:04:55;;;;;;;15.15;6.63;;;;;;;;;;5019958;28;20030;-80
2024/01/28 07:07:21;;;;;;;15.27;7.07;;;;;;;;;;5008017;28;20863;-79
2024/01/28 07:09:46;;;;;;;12.35;6.93;;;;;;;;;;5022053;28;20113;-80
2024/01/28 07:12:11;;;;;;;5.40;2.88;;;;;;;;;;5024158;28;20032;-78
2024/01/28 07:14:37;;;;;;;14.57;6.35;;;;;;;;;;5023060;28;20041;-79
2024/01/28 07:17:02;;;;;;;7.60;3.88;;;;;;;;;;5024496;28;20045;-79
2024/01/28 07:19:28;;;;;;;14.00;7.50;;;;;;;;;;5019654;28;20548;-80
2024/01/28 07:21:53;;;;;;;11.73;5.90;;;;;;;;;;5024353;28;20032;-79
2024/01/28 07:24:19;;;;;;;11.15;6.50;;;;;;;;;;5019307;28;20038;-79
2024/01/28 07:26:46;;;;;;;11.60;6.13;;;;;;;;;;5035612;28;20092;-79
2024/01/28 07:29:11;;;;;;;11.85;5.43;;;;;;;;;;5034174;28;20071;-80
2024/01/28 07:31:37;;;;;;;12.30;6.15;;;;;;;;;;5030102;28;20049;-79
2024/01/28 07:34:04;;;;;;;16.25;6.22;;;;;;;;;;5013994;28;20288;-79
2024/01/28 07:36:30;;;;;;;14.00;6.20;;;;;;;;;;5011228;28;20041;-79
2024/01/28 07:38:56;;;;;;;8.68;3.72;;;;;;;;;;5018142;28;20029;-80
2024/01/28 07:41:21;;;;;;;12.98;6.63;;;;;;;;;;5033938;28;20171;-79
2024/01/28 07:43:47;;;;;;;12.65;7.30;;;;;;;;;;5035069;28;20037;-80
2024/01/28 07:46:12;;;;;;;8.05;5.00;;;;;;;;;;5034449;28;20037;-78
2024/01/28 07:48:37;;;;;;;13.48;5.95;;;;;;;;;;5032466;28;20036;-79
2024/01/28 07:51:03;;;;;;;9.95;5.28;;;;;;;;;;5020999;28;20045;-78
2024/01/28 07:53:28;;;;;;;13.27;5.57;;;;;;;;;;5008463;28;20036;-79
2024/01/28 07:55:54;;;;;;;15.20;5.38;;;;;;;;;;5028387;28;20044;-79
2024/01/28 07:58:19;;;;;;;11.35;5.07;;;;;;;;;;5019271;28;20579;-78
2024/01/28 08:00:45;;;;;;;13.50;6.88;;;;;;;;;;5027425;28;21219;-77
2024/01/28 08:03:10;;;;;;;11.25;6.93;;;;;;;;;;5035075;28;20053;-77
2024/01/28 08:05:35;;;;;;;15.18;8.13;;;;;;;;;;5025300;28;20033;-76
2024/01/28 08:08:01;;;;;;;14.00;7.18;;;;;;;;;;5037499;28;20541;-76
2024/01/28 08:10:26;;;;;;;19.95;9.23;;;;;;;;;;5035139;28;20048;-76
2024/01/28 08:12:52;;;;;;;20.52;9.48;;;;;;;;;;5035391;28;20075;-76
2024/01/28 08:15:19;;;;;;;21.38;10.02;;;;;;;;;;5027387;28;20120;-76
2024/01/28 08:17:45;;;;;;;25.10;10.27;;;;;;;;;;5026489;28;20037;-76
2024/01/28 08:20:10;;;;;;;23.08;10.18;;;;;;;;;;5026781;28;20044;-76
2024/01/28 08:22:37;;;;;;;21.55;9.98;;;;;;;;;;5025864;28;20087;-76
2024/01/28 08:25:03;;;;;;;25.33;10.93;;;;;;;;;;5033482;28;20057;-76
2024/01/28 08:27:30;;;;;;;23.75;10.00;;;;;;;;;;5015568;28;20061;-77
2024/01/28 08:29:55;;;;;;;18.00;8.60;;;;;;;;;;5031482;28;20096;-77
2024/01/28 08:32:20;;;;;;;29.58;11.00;;;;;;;;;;5032751;28;20041;-77
2024/01/28 08:34:48;;;;;;;21.67;7.80;;;;;;;;;;5008221;28;20079;-78
2024/01/28 08:37:14;;;;;;;12.30;6.13;;;;;;;;;;5028659;28;20845;-77
2024/01/28 08:39:39;;;;;;;17.98;7.63;;;;;;;;;;5026691;28;20052;-77
2024/01/28 08:42:05;;;;;;;16.15;8.02;;;;;;;;;;5042344;28;20086;-77
2024/01/28 08:44:30;;;;;;;12.82;7.53;;;;;;;;;;5030481;28;20125;-77
2024/01/28 08:46:56;;;;;;;20.02;7.15;;;;;;;;;;5033904;28;20709;-78
2024/01/28 08:49:21;;;;;;;18.88;7.38;;;;;;;;;;5023582;28;20037;-77
2024/01/28 08:51:46;;;;;;;4.13;2.05;;;;;;;;;;5034565;28;20123;-77
2024/01/28 08:54:12;;;;;;;17.17;5.95;;;;;;;;;;5012728;28;20032;-77
2024/01/28 08:56:37;;;;;;;13.65;5.57;;;;;;;;;;5016197;28;20033;-77
2024/01/28 08:59:03;;;;;;;14.13;6.03;;;;;;;;;;5004861;28;20045;-78
2024/01/28 09:01:28;;;;;;;15.50;6.05;;;;;;;;;;5024033;28;20049;-78
2024/01/28 09:03:53;;;;;;;13.20;6.85;;;;;;;;;;5013889;28;20041;-78
2024/01/28 09:06:19;;;;;;;12.18;6.35;;;;;;;;;;5030693;28;20116;-79
2024/01/28 09:08:44;;;;;;;18.42;7.93;;;;;;;;;;5020876;28;20061;-79
2024/01/28 09:11:09;;;;;;;22.17;8.07;;;;;;;;;;5021774;28;20053;-79
2024/01/28 09:13:35;;;;;;;25.30;9.13;;;;;;;;;;5032349;28;20048;-79
2024/01/28 09:16:00;;;;;;;28.10;16.40;;;;;;;;;;5011789;28;20037;-79
2024/01/28 09:18:25;;;;;;;31.23;15.00;;;;;;;;;;5012913;28;20040;-78
2024/01/28 09:20:51;;;;;;;28.63;13.38;;;;;;;;;;5020047;28;20912;-79
2024/01/28 09:23:16;;;;;;;25.77;14.23;;;;;;;;;;5024565;28;20045;-79
2024/01/28 09:25:42;;;;;;;33.22;13.60;;;;;;;;;;5036433;28;20044;-79
2024/01/28 09:28:07;;;;;;;27.27;12.45;;;;;;;;;;5015944;28;20048;-79
2024/01/28 09:30:33;;;;;;;26.20;10.10;;;;;;;;;;5037733;28;20036;-78
2024/01/28 09:32:58;;;;;;;23.38;8.80;;;;;;;;;;5022541;28;20036;-78
2024/01/28 09:35:23;;;;;;;23.38;8.57;;;;;;;;;;5029137;28;20059;-79
2024/01/28 09:37:50;;;;;;;24.20;9.57;;;;;;;;;;5034968;28;20040;-79
2024/01/28 09:40:15;;;;;;;15.52;7.78;;;;;;;;;;5039048;28;20033;-78
2024/01/28 09:42:59;;;;;;;16.27;8.60;;;;;;;;;;5020950;28;20041;-79
2024/01/28 09:45:26;;;;;;;14.95;8.63;;;;;;;;;;5027064;28;20075;-79
2024/01/28 09:47:52;;;;;;;24.77;10.85;;;;;;;;;;5033712;28;20053;-79
2024/01/28 09:50:19;;;;;;;21.70;11.57;;;;;;;;;;5034841;28;20106;-79
2024/01/28 09:52:45;;;;;;;35.58;17.95;;;;;;;;;;5040408;28;20036;-79
2024/01/28 09:55:11;;;;;;;20.33;11.75;;;;;;;;;;5046276;28;20157;-79
2024/01/28 09:57:38;;;;;;;25.92;11.23;;;;;;;;;;5038993;28;20037;-78
2024/01/28 10:00:05;;;;;;;22.40;10.88;;;;;;;;;;5018220;28;20446;-79
2024/01/28 10:02:30;;;;;;;26.27;10.85;;;;;;;;;;5027372;28;20045;-78
2024/01/28 10:04:56;;;;;;;20.20;9.45;;;;;;;;;;5025585;28;20033;-78
2024/01/28 10:07:22;;;;;;;23.45;9.65;;;;;;;;;;5019268;28;20056;-78
2024/01/28 10:09:49;;;;;;;25.92;10.98;;;;;;;;;;5025377;28;20044;-78
2024/01/28 10:12:15;;;;;;;19.88;10.70;;;;;;;;;;5010178;28;20037;-78
2024/01/28 10:14:49;;;;;;;14.13;7.97;;;;;;;;;;5022466;28;20041;-78
2024/01/28 10:17:14;;;;;;;16.33;9.15;;;;;;;;;;5021823;28;20045;-78
2024/01/28 10:19:41;;;;;;;20.17;9.50;;;;;;;;;;5031971;28;20135;-78
2024/01/28 10:22:06;;;;;;;17.42;8.90;;;;;;;;;;5034841;28;20040;-78
2024/01/28 10:24:32;;;;;;;20.52;7.80;;;;;;;;;;5027404;28;20072;-78
2024/01/28 10:26:57;;;;;;;16.45;7.78;;;;;;;;;;5020140;28;20124;-78
2024/01/28 10:29:25;;;;;;;12.45;6.20;;;;;;;;;;5017912;28;20050;-78
2024/01/28 10:31:51;;;;;;;14.38;6.10;;;;;;;;;;5013727;28;20041;-78
2024/01/28 10:34:17;;;;;;;14.43;6.15;;;;;;;;;;5028234;28;20044;-77
2024/01/28 10:36:47;;;;;;;18.67;6.60;;;;;;;;;;5025528;28;20132;-77
2024/01/28 10:39:14;;;;;;;16.02;6.85;;;;;;;;;;5031985;28;20037;-78
2024/01/28 10:41:42;;;;;;;12.98;6.50;;;;;;;;;;5024279;28;20086;-77
2024/01/28 10:44:08;;;;;;;15.55;6.72;;;;;;;;;;5021356;28;20045;-78
2024/01/28 10:46:38;;;;;;;15.95;7.38;;;;;;;;;;5022035;28;20070;-78
2024/01/28 10:49:05;;;;;;;20.63;6.90;;;;;;;;;;5028750;28;20064;-78
2024/01/28 10:51:38;;;;;;;17.17;7.25;;;;;;;;;;5023218;28;20041;-78
2024/01/28 10:54:07;;;;;;;11.82;6.60;;;;;;;;;;5019719;28;20102;-77
2024/01/28 10:56:32;;;;;;;19.33;7.22;;;;;;;;;;5023285;28;20044;-78
2024/01/28 10:58:58;;;;;;;17.60;5.63;;;;;;;;;;5025989;28;20049;-79
2024/01/28 11:01:25;;;;;;;10.95;6.20;;;;;;;;;;5030630;28;20037;-78
2024/01/28 11:03:52;;;;;;;15.88;6.03;;;;;;;;;;5027741;28;20037;-78
2024/01/28 11:06:18;;;;;;;11.00;5.40;;;;;;;;;;5025756;28;20114;-78
2024/01/28 11:08:45;;;;;;;14.80;6.78;;;;;;;;;;5016304;28;20539;-78
2024/01/28 11:11:12;;;;;;;16.20;5.53;;;;;;;;;;5039647;28;20587;-78
2024/01/28 11:13:38;;;;;;;10.65;5.30;;;;;;;;;;5036167;28;20080;-78
2024/01/28 11:16:06;;;;;;;11.57;4.40;;;;;;;;;;5034190;28;20156;-78
2024/01/28 11:18:32;;;;;;;11.75;4.40;;;;;;;;;;5027658;28;20437;-79
2024/01/28 11:21:09;;;;;;;13.38;5.35;;;;;;;;;;5027775;28;20075;-78
2024/01/28 11:23:41;;;;;;;11.15;4.53;;;;;;;;;;5028411;28;20110;-78
2024/01/28 11:26:13;;;;;;;13.68;6.10;;;;;;;;;;5036006;28;20029;-79
2024/01/28 11:28:45;;;;;;;9.18;4.80;;;;;;;;;;5037133;28;20061;-78
2024/01/28 11:31:28;;;;;;;13.68;5.57;;;;;;;;;;5019507;28;20440;-78
2024/01/28 11:33:53;;;;;;;14.77;6.40;;;;;;;;;;5029864;28;20048;-78
2024/01/28 11:36:27;;;;;;;15.00;6.00;;;;;;;;;;5039892;28;20812;-78
2024/01/28 11:39:02;;;;;;;13.52;5.78;;;;;;;;;;5011872;28;20041;-78
2024/01/28 11:41:35;;;;;;;12.73;4.90;;;;;;;;;;5029500;28;20123;-78
2024/01/28 11:44:00;;;;;;;10.75;5.43;;;;;;;;;;5034825;28;20524;-78
2024/01/28 11:46:26;;;;;;;14.95;6.10;;;;;;;;;;5024138;28;20149;-78
2024/01/28 11:48:52;;;;;;;13.02;5.53;;;;;;;;;;5031484;28;20083;-78
2024/01/28 11:51:17;;;;;;;13.43;5.45;;;;;;;;;;5032275;28;20080;-79
2024/01/28 11:53:43;;;;;;;13.43;5.55;;;;;;;;;;5021688;28;20041;-78
2024/01/28 11:56:09;;;;;;;11.30;5.45;;;;;;;;;;5007984;28;20045;-79
2024/01/28 11:58:35;;;;;;;11.23;5.70;;;;;;;;;;5036278;28;20040;-78
2024/01/28 12:01:00;;;;;;;8.23;4.65;;;;;;;;;;5009682;28;20113;-79
2024/01/28 12:03:26;;;;;;;10.18;4.53;;;;;;;;;;5030364;28;20041;-79
2024/01/28 12:05:51;;;;;;;12.30;5.57;;;;;;;;;;5014514;28;20041;-79
2024/01/28 12:08:27;;;;;;;10.32;5.20;;;;;;;;;;5040056;28;20110;-79
2024/01/28 12:11:02;;;;;;;10.43;4.72;;;;;;;;;;5034152;28;20033;-78
2024/01/28 12:13:28;;;;;;;13.75;5.65;;;;;;;;;;5018175;28;20045;-78
2024/01/28 12:15:57;;;;;;;13.77;5.75;;;;;;;;;;5026919;28;20041;-79
2024/01/28 12:18:22;;;;;;;14.75;5.75;;;;;;;;;;5022681;28;20040;-79
2024/01/28 12:20:51;;;;;;;14.77;4.75;;;;;;;;;;5022263;28;20025;-78
2024/01/28 12:23:19;;;;;;;11.23;5.43;;;;;;;;;;5037449;28;20712;-78
2024/01/28 12:25:44;;;;;;;10.57;4.93;;;;;;;;;;5030649;28;21382;-79
2024/01/28 12:28:10;;;;;;;10.57;4.25;;;;;;;;;;5041363;28;20045;-78
2024/01/28 12:30:37;;;;;;;12.73;4.80;;;;;;;;;;5017533;28;20518;-78
2024/01/28 12:33:03;;;;;;;11.18;5.07;;;;;;;;;;5022875;28;20086;-78
2024/01/28 12:35:28;;;;;;;13.25;5.78;;;;;;;;;;5019122;28;20502;-77
2024/01/28 12:37:54;;;;;;;13.00;4.72;;;;;;;;;;5011719;28;20048;-77
2024/01/28 12:40:19;;;;;;;11.40;4.78;;;;;;;;;;5021069;28;20045;-77
2024/01/28 12:42:45;;;;;;;12.55;5.50;;;;;;;;;;5036617;28;20074;-77
2024/01/28 12:45:11;;;;;;;16.35;7.32;;;;;;;;;;5033828;28;20033;-77
2024/01/28 12:47:36;;;;;;;11.40;5.13;;;;;;;;;;5030737;28;20053;-78
2024/01/28 12:50:05;;;;;;;10.52;5.38;;;;;;;;;;5042623;28;20044;-78
2024/01/28 12:52:32;;;;;;;10.45;5.25;;;;;;;;;;5037649;28;20259;-78
2024/01/28 12:54:57;;;;;;;10.90;4.78;;;;;;;;;;5025572;28;20522;-78
2024/01/28 12:57:22;;;;;;;12.07;5.43;;;;;;;;;;5048185;28;20050;-78
2024/01/28 12:59:48;;;;;;;15.00;5.55;;;;;;;;;;5039126;28;20045;-78
2024/01/28 13:02:13;;;;;;;12.52;5.70;;;;;;;;;;5046836;28;20066;-78
2024/01/28 13:04:39;;;;;;;13.60;5.60;;;;;;;;;;5034676;28;20037;-79
2024/01/28 13:07:04;;;;;;;12.07;5.60;;;;;;;;;;5024119;28;20393;-79
2024/01/28 13:09:30;;;;;;;8.75;4.80;;;;;;;;;;5029052;28;20047;-78
2024/01/28 13:11:56;;;;;;;12.18;5.07;;;;;;;;;;5034981;28;20033;-79
2024/01/28 13:14:21;;;;;;;12.60;5.90;;;;;;;;;;5008290;28;20049;-78
2024/01/28 13:16:47;;;;;;;12.43;5.55;;;;;;;;;;5020960;28;20038;-78
2024/01/28 13:19:12;;;;;;;11.80;5.43;;;;;;;;;;5025584;28;20036;-79
2024/01/28 13:21:38;;;;;;;11.00;5.28;;;;;;;;;;5039908;28;20569;-78
2024/01/28 13:24:04;;;;;;;7.95;4.80;;;;;;;;;;5024505;28;20138;-78
2024/01/28 13:26:30;;;;;;;11.27;5.00;;;;;;;;;;5032593;28;20048;-78
2024/01/28 13:28:56;;;;;;;10.45;5.10;;;;;;;;;;5033722;28;20102;-78
2024/01/28 13:31:21;;;;;;;6.63;3.67;;;;;;;;;;5040101;28;20052;-78
2024/01/28 13:33:47;;;;;;;10.07;4.07;;;;;;;;;;5041649;28;20050;-78
2024/01/28 13:36:12;;;;;;;12.35;5.57;;;;;;;;;;5041299;28;20128;-77
2024/01/28 13:38:40;;;;;;;9.45;4.88;;;;;;;;;;5019973;28;20109;-78
2024/01/28 13:41:06;;;;;;;11.32;5.65;;;;;;;;;;5030994;28;20036;-77
2024/01/28 13:43:34;;;;;;;12.32;5.78;;;;;;;;;;5038005;28;20032;-77
2024/01/28 13:46:03;;;;;;;11.70;4.88;;;;;;;;;;5015806;28;20089;-77
2024/01/28 13:48:29;;;;;;;8.73;5.25;;;;;;;;;;5031621;28;20057;-77
2024/01/28 13:50:55;;;;;;;10.43;5.07;;;;;;;;;;5010144;28;20049;-77
2024/01/28 13:53:20;;;;;;;12.05;4.90;;;;;;;;;;5026040;28;20086;-79
2024/01/28 13:55:46;;;;;;;10.52;4.13;;;;;;;;;;5033403;28;20041;-78
2024/01/28 13:58:11;;;;;;;8.93;3.17;;;;;;;;;;5031578;28;20734;-78
2024/01/28 14:00:36;;;;;;;9.25;4.47;;;;;;;;;;5018782;28;20049;-78
2024/01/28 14:03:03;;;;;;;9.85;4.15;;;;;;;;;;5030035;28;20042;-78
2024/01/28 14:05:28;;;;;;;8.32;4.43;;;;;;;;;;5024070;28;20086;-79
2024/01/28 14:07:54;;;;;;;8.65;4.05;;;;;;;;;;5028932;28;20041;-78
2024/01/28 14:10:19;;;;;;;11.90;5.15;;;;;;;;;;5022270;28;20049;-79
2024/01/28 14:12:45;;;;;;;10.98;5.03;;;;;;;;;;5042051;28;20045;-78
2024/01/28 14:15:10;;;;;;;12.75;5.10;;;;;;;;;;5030103;28;20033;-78
2024/01/28 14:17:35;;;;;;;10.68;4.65;;;;;;;;;;5030134;28;20037;-78
2024/01/28 14:20:03;;;;;;;12.18;6.18;;;;;;;;;;5010411;28;20029;-78
2024/01/28 14:22:29;;;;;;;11.55;4.60;;;;;;;;;;5029302;28;20061;-79
2024/01/28 14:24:55;;;;;;;12.25;4.95;;;;;;;;;;5027529;28;20120;-79
2024/01/28 14:27:21;;;;;;;11.57;5.38;;;;;;;;;;5023593;28;20200;-78